createdAt,value
2017-12-28T00:00:48.316Z,6.10
2017-12-28T00:03:17.323Z,6.20
2017-12-28T00:05:45.594Z,6.20
2017-12-28T00:08:15.005Z,6.20
2017-12-28T00:10:44.739Z,6.20
2017-12-28T00:13:13.007Z,6.20
2017-12-28T00:15:41.361Z,6.20
2017-12-28T00:18:11.140Z,6.10
2017-12-28T00:20:39.397Z,6.20
2017-12-28T00:23:07.645Z,6.30
2017-12-28T00:25:35.923Z,6.30
2017-12-28T00:28:05.690Z,6.30
2017-12-28T00:35:34.116Z,6.20
2017-12-28T00:38:03.167Z,6.30
2017-12-28T00:43:02.044Z,6.20
2017-12-28T00:45:30.325Z,6.10
2017-12-28T00:47:59.336Z,6.10
2017-12-28T00:50:27.586Z,6.00
2017-12-28T00:52:57.392Z,6.10
2017-12-28T00:55:26.774Z,6.10
2017-12-28T00:57:55.766Z,6.10
2017-12-28T01:00:24.833Z,6.10
2017-12-28T01:07:52.009Z,6.10
2017-12-28T01:10:20.241Z,6.10
2017-12-28T01:15:17.951Z,6.10
2017-12-28T01:17:46.217Z,6.10
2017-12-28T01:22:44.764Z,6.00
2017-12-28T01:27:42.487Z,6.00
2017-12-28T01:30:11.508Z,6.00
2017-12-28T01:32:40.505Z,6.10
2017-12-28T01:40:09.209Z,6.00
2017-12-28T01:42:37.429Z,6.00
2017-12-28T01:45:06.857Z,6.00
2017-12-28T01:47:35.857Z,5.90
2017-12-28T01:50:04.076Z,6.00
2017-12-28T01:52:33.472Z,5.90
2017-12-28T01:55:02.492Z,5.90
2017-12-28T01:57:31.879Z,5.80
2017-12-28T02:02:30.468Z,5.80
2017-12-28T02:04:59.848Z,5.80
2017-12-28T02:07:28.126Z,5.80
2017-12-28T02:09:57.151Z,5.80
2017-12-28T02:12:26.198Z,5.80
2017-12-28T02:14:54.461Z,5.80
2017-12-28T02:17:22.707Z,5.80
2017-12-28T02:19:50.979Z,5.80
2017-12-28T02:22:20.776Z,5.80
2017-12-28T02:24:49.396Z,5.70
2017-12-28T02:27:17.635Z,5.70
2017-12-28T02:29:45.921Z,5.70
2017-12-28T02:32:14.920Z,5.80
2017-12-28T02:34:43.144Z,5.80
2017-12-28T02:37:12.181Z,5.80
2017-12-28T02:39:40.424Z,5.80
2017-12-28T02:42:08.650Z,5.70
2017-12-28T02:44:38.437Z,5.70
2017-12-28T02:47:06.661Z,5.70
2017-12-28T02:49:35.657Z,5.60
2017-12-28T02:52:05.077Z,5.60
2017-12-28T02:54:34.443Z,5.60
2017-12-28T02:57:02.673Z,5.60
2017-12-28T02:59:32.471Z,5.60
2017-12-28T03:02:00.709Z,5.50
2017-12-28T03:04:29.368Z,5.40
2017-12-28T03:06:59.168Z,5.40
2017-12-28T03:09:28.163Z,5.40
2017-12-28T03:11:56.804Z,5.40
2017-12-28T03:14:25.848Z,5.30
2017-12-28T03:16:54.081Z,5.30
2017-12-28T03:19:22.353Z,5.20
2017-12-28T03:21:52.210Z,5.20
2017-12-28T03:24:20.436Z,5.20
2017-12-28T03:26:49.444Z,5.20
2017-12-28T03:29:17.727Z,5.20
2017-12-28T03:34:15.826Z,5.10
2017-12-28T03:36:44.093Z,5.10
2017-12-28T03:39:12.320Z,5.10
2017-12-28T03:41:42.056Z,5.10
2017-12-28T03:44:11.124Z,5.00
2017-12-28T03:46:40.500Z,5.00
2017-12-28T03:51:39.364Z,5.00
2017-12-28T03:56:37.040Z,4.90
2017-12-28T03:59:05.309Z,4.90
2017-12-28T04:01:34.312Z,4.90
2017-12-28T04:06:32.041Z,4.90
2017-12-28T04:09:01.412Z,4.80
2017-12-28T04:11:29.682Z,4.80
2017-12-28T04:13:59.507Z,4.80
2017-12-28T04:16:27.745Z,4.80
2017-12-28T04:18:55.978Z,4.80
2017-12-28T04:21:24.243Z,4.80
2017-12-28T04:26:22.328Z,4.80
2017-12-28T04:28:50.607Z,4.80
2017-12-28T04:31:19.224Z,4.80
2017-12-28T04:33:47.485Z,4.70
2017-12-28T04:36:17.752Z,4.70
2017-12-28T04:38:47.517Z,4.70
2017-12-28T04:41:15.741Z,4.70
2017-12-28T04:43:45.537Z,4.80
2017-12-28T04:48:44.360Z,4.90
2017-12-28T04:51:13.411Z,4.90
2017-12-28T04:53:42.419Z,4.90
2017-12-28T04:56:11.442Z,4.90
2017-12-28T04:58:39.704Z,4.90
2017-12-28T05:06:08.047Z,5.00
2017-12-28T05:08:36.272Z,5.00
2017-12-28T05:11:04.557Z,5.00
2017-12-28T05:13:32.789Z,5.00
2017-12-28T05:16:01.428Z,5.00
2017-12-28T05:18:32.749Z,5.00
2017-12-28T05:21:01.001Z,5.10
2017-12-28T05:23:29.230Z,5.20
2017-12-28T05:25:57.520Z,5.10
2017-12-28T05:28:25.755Z,5.10
2017-12-28T05:30:54.385Z,5.10
2017-12-28T05:33:23.084Z,5.20
2017-12-28T05:35:52.452Z,5.10
2017-12-28T05:38:21.448Z,5.00
2017-12-28T05:43:19.594Z,5.00
2017-12-28T05:50:47.904Z,5.00
2017-12-28T05:53:16.145Z,5.00
2017-12-28T05:55:44.420Z,4.90
2017-12-28T06:00:42.511Z,5.00
2017-12-28T06:03:11.535Z,5.00
2017-12-28T06:05:41.264Z,5.00
2017-12-28T06:10:39.400Z,5.10
2017-12-28T06:18:06.980Z,5.20
2017-12-28T06:20:35.613Z,5.20
2017-12-28T06:23:05.394Z,5.30
2017-12-28T06:28:04.257Z,5.30
2017-12-28T06:33:02.415Z,5.30
2017-12-28T06:35:30.657Z,5.30
2017-12-28T06:40:28.443Z,5.30
2017-12-28T06:42:56.701Z,5.20
2017-12-28T06:45:24.964Z,5.10
2017-12-28T06:50:23.424Z,5.10
2017-12-28T06:52:51.688Z,5.10
2017-12-28T06:55:19.912Z,5.00
2017-12-28T07:00:19.164Z,5.00
2017-12-28T07:02:47.408Z,5.00
2017-12-28T07:05:17.167Z,5.00
2017-12-28T07:07:45.439Z,4.90
2017-12-28T07:10:14.455Z,4.90
2017-12-28T07:12:44.189Z,4.90
2017-12-28T07:15:12.455Z,4.90
2017-12-28T07:17:40.684Z,4.90
2017-12-28T07:22:39.189Z,4.90
2017-12-28T07:25:07.436Z,4.80
2017-12-28T07:27:36.828Z,4.80
2017-12-28T07:32:35.380Z,4.80
2017-12-28T07:40:03.013Z,4.80
2017-12-28T07:42:31.273Z,4.70
2017-12-28T07:44:59.577Z,4.70
2017-12-28T07:47:29.327Z,4.70
2017-12-28T07:49:57.595Z,4.60
2017-12-28T07:52:25.852Z,4.60
2017-12-28T07:54:54.100Z,4.60
2017-12-28T07:57:22.328Z,4.60
2017-12-28T07:59:50.588Z,4.70
2017-12-28T08:02:18.825Z,4.70
2017-12-28T08:07:16.569Z,4.70
2017-12-28T08:09:44.832Z,4.70
2017-12-28T08:12:13.068Z,4.80
2017-12-28T08:14:41.357Z,4.70
2017-12-28T08:22:09.853Z,4.80
2017-12-28T08:29:37.086Z,4.90
2017-12-28T08:32:05.353Z,4.90
2017-12-28T08:34:34.365Z,4.80
2017-12-28T08:37:04.151Z,4.90
2017-12-28T08:39:32.404Z,4.90
2017-12-28T08:42:00.636Z,4.90
2017-12-28T08:44:30.048Z,4.90
2017-12-28T08:51:57.352Z,4.90
2017-12-28T08:54:26.780Z,5.00
2017-12-28T08:56:55.006Z,5.00
2017-12-28T08:59:24.435Z,5.10
2017-12-28T09:04:22.537Z,5.20
2017-12-28T09:06:50.801Z,5.20
2017-12-28T09:09:19.433Z,5.30
2017-12-28T09:11:47.687Z,5.30
2017-12-28T09:16:45.432Z,5.50
2017-12-28T09:19:15.197Z,5.60
2017-12-28T09:21:44.251Z,5.60
2017-12-28T09:24:12.504Z,5.70
2017-12-28T09:26:40.741Z,6.30
2017-12-28T09:29:10.182Z,5.70
2017-12-28T09:34:09.396Z,5.80
2017-12-28T09:36:39.203Z,5.90
2017-12-28T09:41:37.301Z,6.00
2017-12-28T09:44:05.587Z,6.00
2017-12-28T09:51:32.859Z,6.30
2017-12-28T09:56:31.041Z,6.50
2017-12-28T09:58:59.352Z,6.60
2017-12-28T10:01:27.601Z,6.70
2017-12-28T10:03:56.605Z,6.70
2017-12-28T10:06:25.667Z,6.80
2017-12-28T10:11:24.900Z,7.00
2017-12-28T10:13:54.304Z,7.10
2017-12-28T10:16:22.540Z,7.20
2017-12-28T10:18:50.800Z,7.20
2017-12-28T10:23:48.539Z,7.20
2017-12-28T10:26:17.593Z,7.30
2017-12-28T10:28:46.604Z,7.40
2017-12-28T10:38:43.306Z,7.40
2017-12-28T10:41:11.573Z,7.40
2017-12-28T10:43:39.822Z,7.30
2017-12-28T10:46:08.043Z,7.40
2017-12-28T10:48:37.437Z,7.40
2017-12-28T10:53:35.928Z,7.50
2017-12-28T10:56:04.975Z,7.50
2017-12-28T10:58:34.340Z,7.50
2017-12-28T11:01:02.580Z,7.40
2017-12-28T11:03:31.992Z,7.40
2017-12-28T11:06:00.259Z,7.60
2017-12-28T11:08:28.526Z,7.70
2017-12-28T11:10:56.965Z,7.70
2017-12-28T11:13:26.685Z,7.80
2017-12-28T11:30:52.268Z,7.50
2017-12-28T11:33:20.488Z,7.50
2017-12-28T11:35:49.856Z,7.50
2017-12-28T11:40:48.365Z,7.60
2017-12-28T11:43:16.609Z,7.60
2017-12-28T11:45:44.916Z,7.50
2017-12-28T11:48:14.284Z,7.50
2017-12-28T11:53:18.107Z,7.70
2017-12-28T11:55:46.336Z,7.80
2017-12-28T11:58:14.560Z,7.80
2017-12-28T12:00:48.383Z,7.80
2017-12-28T12:08:26.981Z,7.90
2017-12-28T12:10:56.004Z,8.10
2017-12-28T12:15:54.127Z,8.10
2017-12-28T12:18:22.404Z,8.20
2017-12-28T12:20:50.649Z,8.30
2017-12-28T12:23:19.264Z,8.40
2017-12-28T12:28:17.819Z,8.50
2017-12-28T12:30:47.181Z,8.50
2017-12-28T12:33:16.245Z,8.50
2017-12-28T12:35:44.487Z,8.60
2017-12-28T12:38:14.216Z,8.70
2017-12-28T12:40:42.468Z,8.80
2017-12-28T12:43:10.700Z,8.80
2017-12-28T12:45:39.343Z,8.80
2017-12-28T12:48:07.592Z,8.80
2017-12-28T12:50:35.812Z,8.70
2017-12-28T12:53:05.175Z,8.70
2017-12-28T12:55:33.435Z,8.70
2017-12-28T13:00:31.920Z,8.70
2017-12-28T13:03:00.205Z,8.60
2017-12-28T13:05:28.461Z,8.50
2017-12-28T13:10:26.602Z,8.60
2017-12-28T13:12:54.839Z,8.60
2017-12-28T13:17:52.571Z,8.50
2017-12-28T13:20:22.304Z,8.30
2017-12-28T13:25:20.437Z,8.00
2017-12-28T13:27:49.433Z,7.80
2017-12-28T13:30:17.692Z,7.80
2017-12-28T13:47:44.399Z,7.60
2017-12-28T13:50:12.679Z,7.60
2017-12-28T13:52:41.672Z,7.50
2017-12-28T13:57:40.169Z,7.20
2017-12-28T14:00:08.392Z,7.10
2017-12-28T14:02:36.647Z,7.00
2017-12-28T14:05:06.068Z,7.00
2017-12-28T14:07:35.065Z,7.00
2017-12-28T14:10:04.796Z,6.90
2017-12-28T14:12:33.457Z,6.90
2017-12-28T14:15:02.656Z,6.80
2017-12-28T14:17:31.286Z,6.80
2017-12-28T14:19:59.570Z,6.60
2017-12-28T14:22:27.820Z,6.60
2017-12-28T14:24:56.088Z,6.60
2017-12-28T14:27:24.348Z,6.50
2017-12-28T14:29:53.357Z,6.50
2017-12-28T14:32:21.592Z,6.50
2017-12-28T14:34:50.618Z,6.50
2017-12-28T14:37:19.624Z,6.50
2017-12-28T14:39:47.872Z,6.50
2017-12-28T14:42:16.152Z,6.50
2017-12-28T14:44:44.389Z,6.50
2017-12-28T14:47:12.658Z,6.50
2017-12-28T14:52:10.444Z,6.40
2017-12-28T14:54:38.765Z,6.40
2017-12-28T14:57:07.025Z,6.40
2017-12-28T14:59:35.553Z,6.40
2017-12-28T15:02:03.773Z,6.40
2017-12-28T15:04:32.035Z,6.40
2017-12-28T15:07:01.413Z,6.40
2017-12-28T15:09:29.713Z,6.30
2017-12-28T15:11:58.797Z,6.30
2017-12-28T15:14:27.484Z,6.30
2017-12-28T15:16:57.249Z,6.30
2017-12-28T15:19:25.528Z,6.30
2017-12-28T15:24:24.369Z,6.30
2017-12-28T15:26:52.625Z,6.30
2017-12-28T15:29:21.988Z,6.30
2017-12-28T15:31:50.216Z,6.30
2017-12-28T15:34:18.496Z,6.20
2017-12-28T15:36:46.712Z,6.20
2017-12-28T15:39:14.935Z,6.10
2017-12-28T15:41:43.220Z,6.20
2017-12-28T15:44:11.469Z,6.20
2017-12-28T15:46:39.728Z,6.20
2017-12-28T15:49:08.004Z,6.10
2017-12-28T15:54:06.112Z,6.10
2017-12-28T15:56:34.393Z,6.10
2017-12-28T15:59:03.396Z,6.10
2017-12-28T16:01:31.642Z,6.10
2017-12-28T16:04:01.425Z,6.10
2017-12-28T16:06:29.705Z,6.10
2017-12-28T16:08:57.933Z,6.10
2017-12-28T16:11:26.278Z,6.10
2017-12-28T16:13:54.548Z,6.00
2017-12-28T16:16:22.719Z,5.90
2017-12-28T16:18:51.026Z,5.90
2017-12-28T16:21:19.245Z,5.90
2017-12-28T16:23:47.505Z,5.90
2017-12-28T16:26:15.808Z,5.90
2017-12-28T16:28:44.357Z,5.80
2017-12-28T16:31:13.401Z,5.80
2017-12-28T16:33:41.679Z,5.80
2017-12-28T16:36:09.951Z,5.80
2017-12-28T16:38:39.354Z,5.80
2017-12-28T16:41:07.609Z,5.70
2017-12-28T16:46:06.498Z,5.70
2017-12-28T16:48:35.191Z,5.70
2017-12-28T16:56:03.146Z,5.70
2017-12-28T16:58:32.136Z,5.70
2017-12-28T17:01:00.389Z,5.80
2017-12-28T17:03:28.665Z,5.70
2017-12-28T17:05:56.908Z,5.70
2017-12-28T17:08:25.184Z,5.70
2017-12-28T17:10:53.439Z,5.70
2017-12-28T17:15:52.169Z,5.70
2017-12-28T17:20:49.994Z,5.60
2017-12-28T17:23:19.762Z,5.60
2017-12-28T17:25:49.566Z,5.50
2017-12-28T17:28:18.613Z,5.50
2017-12-28T17:30:46.891Z,5.50
2017-12-28T17:33:15.582Z,5.50
2017-12-28T17:35:44.187Z,5.40
2017-12-28T17:40:42.346Z,5.40
2017-12-28T17:43:10.617Z,5.40
2017-12-28T17:45:38.877Z,5.40
2017-12-28T17:48:08.315Z,5.30
2017-12-28T17:50:37.019Z,5.30
2017-12-28T18:00:34.992Z,5.30
2017-12-28T18:03:03.323Z,5.40
2017-12-28T18:05:32.327Z,5.40
2017-12-28T18:10:31.254Z,5.40
2017-12-28T18:12:59.538Z,5.40
2017-12-28T18:15:27.762Z,5.50
2017-12-28T18:17:56.045Z,5.50
2017-12-28T18:20:24.335Z,5.40
2017-12-28T18:22:52.619Z,5.50
2017-12-28T18:25:22.069Z,5.40
2017-12-28T18:27:51.499Z,5.30
2017-12-28T18:30:20.894Z,5.40
2017-12-28T18:32:49.215Z,5.40
2017-12-28T18:37:47.396Z,5.20
2017-12-28T18:40:15.705Z,5.30
2017-12-28T18:42:44.728Z,5.20
2017-12-28T18:45:13.056Z,5.20
2017-12-28T18:47:41.355Z,5.30
2017-12-28T18:50:10.040Z,5.30
2017-12-28T18:52:40.445Z,5.30
2017-12-28T18:55:09.555Z,5.30
2017-12-28T18:57:38.224Z,5.30
2017-12-28T19:00:07.684Z,5.40
2017-12-28T19:02:36.390Z,5.30
2017-12-28T19:05:04.997Z,5.40
2017-12-28T19:07:34.410Z,5.40
2017-12-28T19:10:02.750Z,5.40
2017-12-28T19:15:01.319Z,5.40
2017-12-28T19:17:29.575Z,5.40
2017-12-28T19:19:58.588Z,5.50
2017-12-28T19:24:56.447Z,5.50
2017-12-28T19:27:24.728Z,5.50
2017-12-28T19:29:53.001Z,5.50
2017-12-28T19:32:21.367Z,5.50
2017-12-28T19:34:51.294Z,5.50
2017-12-28T19:37:19.587Z,5.50
2017-12-28T19:39:47.891Z,5.60
2017-12-28T19:42:16.167Z,5.60
2017-12-28T19:44:45.605Z,5.60
2017-12-28T19:47:14.374Z,5.60
2017-12-28T19:52:12.175Z,5.60
2017-12-28T19:59:41.068Z,5.50
2017-12-28T20:02:09.417Z,5.50
2017-12-28T20:04:38.483Z,5.50
2017-12-28T20:07:06.764Z,5.60
2017-12-28T20:09:35.164Z,5.70
2017-12-28T20:12:04.924Z,5.70
2017-12-28T20:14:33.220Z,5.80
2017-12-28T20:17:01.563Z,5.70
2017-12-28T20:19:31.276Z,5.70
2017-12-28T20:21:59.560Z,5.70
2017-12-28T20:24:27.919Z,5.70
2017-12-28T20:26:57.323Z,5.70
2017-12-28T20:29:25.618Z,5.70
2017-12-28T20:31:53.947Z,5.70
2017-12-28T20:34:22.991Z,5.80
2017-12-28T20:36:52.410Z,5.70
2017-12-28T20:39:20.764Z,5.70
2017-12-28T20:41:50.191Z,5.80
2017-12-28T20:44:19.221Z,5.80
2017-12-28T20:46:47.560Z,5.70
2017-12-28T20:49:16.224Z,5.70
2017-12-28T20:51:44.487Z,5.70
2017-12-28T20:54:12.825Z,5.70
2017-12-28T20:56:41.152Z,5.70
2017-12-28T20:59:09.432Z,5.70
2017-12-28T21:01:37.792Z,5.70
2017-12-28T21:04:07.204Z,5.70
2017-12-28T21:06:36.252Z,5.70
2017-12-28T21:09:04.610Z,5.60
2017-12-28T21:11:34.401Z,5.70
2017-12-28T21:14:03.812Z,5.60
2017-12-28T21:16:32.982Z,5.60
2017-12-28T21:19:02.348Z,5.70
2017-12-28T21:26:30.095Z,5.70
2017-12-28T21:28:58.356Z,5.70
2017-12-28T21:31:26.724Z,5.70
2017-12-28T21:33:54.988Z,5.70
2017-12-28T21:38:52.895Z,5.70
2017-12-28T21:41:21.932Z,5.60
2017-12-28T21:43:50.959Z,5.60
2017-12-28T21:46:19.304Z,5.60
2017-12-28T21:48:47.957Z,5.60
2017-12-28T21:51:16.224Z,5.60
2017-12-28T21:56:14.042Z,5.60
2017-12-28T22:01:12.272Z,5.50
2017-12-28T22:03:40.564Z,5.50
2017-12-28T22:06:08.848Z,5.50
2017-12-28T22:08:37.224Z,5.50
2017-12-28T22:11:05.510Z,5.40
2017-12-28T22:13:34.195Z,5.40
2017-12-28T22:16:02.528Z,5.30
2017-12-28T22:18:30.811Z,5.30
2017-12-28T22:20:59.480Z,5.30
2017-12-28T22:25:57.322Z,5.20
2017-12-28T22:28:25.602Z,5.20
2017-12-28T22:30:55.053Z,5.20
2017-12-28T22:37:25.259Z,5.10
2017-12-28T22:39:53.528Z,5.10
2017-12-28T22:42:22.199Z,5.10
2017-12-28T22:44:50.537Z,5.00
2017-12-28T22:49:49.805Z,4.90
2017-12-28T22:52:18.109Z,4.90
2017-12-28T22:54:46.371Z,4.90
2017-12-28T22:57:14.655Z,4.80
2017-12-28T22:59:42.954Z,4.70
2017-12-28T23:02:11.983Z,4.70
2017-12-28T23:04:40.282Z,4.70
2017-12-28T23:07:09.374Z,4.70
2017-12-28T23:09:39.158Z,4.70
2017-12-28T23:12:07.472Z,4.60
2017-12-28T23:14:35.790Z,4.60
2017-12-28T23:17:04.053Z,4.50
2017-12-28T23:19:32.334Z,4.50
2017-12-28T23:22:01.767Z,4.50
2017-12-28T23:24:30.055Z,4.50
2017-12-28T23:26:58.315Z,4.50
2017-12-28T23:29:26.622Z,4.50
2017-12-28T23:31:54.930Z,4.50
2017-12-28T23:36:54.304Z,4.50
2017-12-28T23:39:22.570Z,4.50
2017-12-28T23:41:51.963Z,4.50
2017-12-28T23:44:20.260Z,4.50
2017-12-28T23:49:18.414Z,4.50
2017-12-28T23:51:46.714Z,4.50
2017-12-28T23:54:14.999Z,4.40
2017-12-28T23:56:43.260Z,4.50
